Parçalı bulutlu
Parçalı bulutlu
Parçalı bulutlu
Parçalı bulutlu
Parçalı bulutlu
Parçalı bulutlu
Parçalı bulutlu
(°C)
(°C)
GB
BGB
BGB
B
B
B
B
(km/h)
4-9
4-10
4-10
5-11
6-12
6-14
7-15
(mm)
0
0
0
0
0
0
0
(%)
0
0
0
0
0
0
0

Güneşin açısı

/ -12.5°
sun-icon
UV 3
05:15
21:35
Küçülen ay (197°)
----
04:54

Reykjavik (BIRK) için METAR

Zaman Koşullar Sıcaklık/
Çiy noktası
Rüzgar Görünürlük Hava Bulutlar Basınç Değiştir Ham
VFR 7°C / 5°C 120º 3kt 9700m - Few Clouds 4500ft
Broken Clouds 13000ft
1018 - BIRK 250100Z 12003KT 9999 FEW045 BKN130 07/05 Q1018
VFR 7°C / 6°C 60º 2kt 9700m - Scattered Clouds 4500ft
Broken Clouds 13000ft
1017 - BIRK 250000Z 06002KT 9999 SCT045 BKN130 07/06 Q1017
VFR 7°C / 5°C 1kt 9700m - Broken Clouds 4500ft 1017 - BIRK 242300Z VRB01KT 9999 BKN045 07/05 Q1017
VFR 8°C / 4°C 2kt 9700m - Broken Clouds 4500ft 1017 - BIRK 242200Z VRB02KT 9999 BKN045 08/04 Q1017
VFR 9°C / 4°C 40º variable 020º to 090º 4kt 9700m - Few Clouds 2000ft
Broken Clouds 3700ft
1017 - BIRK 242100Z 04004KT 020V090 9999 FEW020 BKN037 09/04 Q1017
VFR 10°C / 3°C 140º variable 110º to 170º 4kt 9700m - Broken Clouds 3900ft 1017 - BIRK 242000Z 14004KT 110V170 9999 BKN039 10/03 Q1017
VFR 11°C / 3°C 140º variable 090º to 170º 6kt 9700m - Few Clouds 3300ft
Broken Clouds 4200ft
1017 - BIRK 241900Z 14006KT 090V170 9999 FEW033 BKN042 11/03 Q1017
VFR 11°C / 3°C 150º 9kt 9700m - Few Clouds 2500ft
Broken Clouds 4500ft
1017 - BIRK 241800Z 15009KT 9999 FEW025 BKN045 11/03 Q1017
VFR 11°C / 3°C 160º 9kt 9700m - Broken Clouds 3600ft 1017 - BIRK 241700Z 16009KT 9999 BKN036 11/03 Q1017
VFR 11°C / 3°C 150º 9kt 9700m - Broken Clouds 3600ft 1017 - BIRK 241600Z 15009KT 9999 BKN036 11/03 Q1017
VFR 11°C / 2°C 140º variable 090º to 180º 6kt 9700m - Broken Clouds 4200ft 1018 - BIRK 241500Z 14006KT 090V180 9999 BKN042 11/02 Q1018
VFR 11°C / 3°C 150º 7kt 9700m. Runway 19: Visual range is 1500m. - Broken Clouds 3400ft 1018 - BIRK 241400Z 15007KT 9999 R19/P1500N BKN034 11/03 Q1018
VFR 11°C / 2°C 140º 6kt 9700m - Broken Clouds 3700ft 1019 - BIRK 241306Z 14006KT 9999 BKN037 11/02 Q1019
VFR 10°C / 3°C 120º variable 090º to 150º 5kt 9700m - Overcast 3400ft 1020 - BIRK 241200Z 12005KT 090V150 9999 OVC034 10/03 Q1020
VFR 10°C / 3°C 90º variable 060º to 120º 4kt 9700m - Overcast 3300ft 1020 - BIRK 241100Z 09004KT 060V120 9999 OVC033 10/03 Q1020
VFR 10°C / 4°C 90º 3kt 9700m - Overcast 3200ft 1021 - BIRK 241000Z 09003KT 9999 OVC032 10/04 Q1021
VFR 9°C / 4°C 110º variable 080º to 140º 3kt 9700m - Overcast 3200ft 1022 - BIRK 240900Z 11003KT 080V140 9999 OVC032 09/04 Q1022
VFR 8°C / 4°C 110º 3kt 9700m - Overcast 3300ft 1022 - BIRK 240800Z 11003KT 9999 OVC033 08/04 Q1022
VFR 7°C / 5°C 100º 3kt 9700m - Broken Clouds 3400ft 1023 - BIRK 240700Z 10003KT 9999 BKN034 07/05 Q1023
VFR 8°C / 5°C 80º 2kt 9700m - Broken Clouds 3400ft 1023 - BIRK 240600Z 08002KT 9999 BKN034 08/05 Q1023
VFR 7°C / 6°C variable 0kt 9700m - Broken Clouds 3400ft 1024 - BIRK 240500Z 00000KT 9999 BKN034 07/06 Q1024
VFR 7°C / 6°C 210º 2kt 9700m - Overcast 3500ft 1024 - BIRK 240400Z 21002KT 9999 OVC035 07/06 Q1024
VFR 7°C / 6°C variable 0kt 9700m - Broken Clouds 3700ft 1025 - BIRK 240300Z 00000KT 9999 BKN037 07/06 Q1025
VFR 7°C / 7°C 220º 1kt 9700m - Broken Clouds 3900ft 1026 - BIRK 240200Z 22001KT 9999 BKN039 07/07 Q1026

VFR

7°C / 5°C

[Daha fazla]
Rüzgar 120º 3kt
Görünürlük 9700m
Hava -
Bulutlar Few Clouds 4500ft
Broken Clouds 13000ft
Basınç 1018
Değiştir -
Ham BIRK 250100Z 12003KT 9999 FEW045 BKN130 07/05 Q1018

VFR

7°C / 6°C

[Daha fazla]
Rüzgar 60º 2kt
Görünürlük 9700m
Hava -
Bulutlar Scattered Clouds 4500ft
Broken Clouds 13000ft
Basınç 1017
Değiştir -
Ham BIRK 250000Z 06002KT 9999 SCT045 BKN130 07/06 Q1017

VFR

7°C / 5°C

[Daha fazla]
Rüzgar 1kt
Görünürlük 9700m
Hava -
Bulutlar Broken Clouds 4500ft
Basınç 1017
Değiştir -
Ham BIRK 242300Z VRB01KT 9999 BKN045 07/05 Q1017

VFR

8°C / 4°C

[Daha fazla]
Rüzgar 2kt
Görünürlük 9700m
Hava -
Bulutlar Broken Clouds 4500ft
Basınç 1017
Değiştir -
Ham BIRK 242200Z VRB02KT 9999 BKN045 08/04 Q1017

VFR

9°C / 4°C

[Daha fazla]
Rüzgar 40º variable 020º to 090º 4kt
Görünürlük 9700m
Hava -
Bulutlar Few Clouds 2000ft
Broken Clouds 3700ft
Basınç 1017
Değiştir -
Ham BIRK 242100Z 04004KT 020V090 9999 FEW020 BKN037 09/04 Q1017

VFR

10°C / 3°C

[Daha fazla]
Rüzgar 140º variable 110º to 170º 4kt
Görünürlük 9700m
Hava -
Bulutlar Broken Clouds 3900ft
Basınç 1017
Değiştir -
Ham BIRK 242000Z 14004KT 110V170 9999 BKN039 10/03 Q1017

VFR

11°C / 3°C

[Daha fazla]
Rüzgar 140º variable 090º to 170º 6kt
Görünürlük 9700m
Hava -
Bulutlar Few Clouds 3300ft
Broken Clouds 4200ft
Basınç 1017
Değiştir -
Ham BIRK 241900Z 14006KT 090V170 9999 FEW033 BKN042 11/03 Q1017

VFR

11°C / 3°C

[Daha fazla]
Rüzgar 150º 9kt
Görünürlük 9700m
Hava -
Bulutlar Few Clouds 2500ft
Broken Clouds 4500ft
Basınç 1017
Değiştir -
Ham BIRK 241800Z 15009KT 9999 FEW025 BKN045 11/03 Q1017

VFR

11°C / 3°C

[Daha fazla]
Rüzgar 160º 9kt
Görünürlük 9700m
Hava -
Bulutlar Broken Clouds 3600ft
Basınç 1017
Değiştir -
Ham BIRK 241700Z 16009KT 9999 BKN036 11/03 Q1017

VFR

11°C / 3°C

[Daha fazla]
Rüzgar 150º 9kt
Görünürlük 9700m
Hava -
Bulutlar Broken Clouds 3600ft
Basınç 1017
Değiştir -
Ham BIRK 241600Z 15009KT 9999 BKN036 11/03 Q1017

VFR

11°C / 2°C

[Daha fazla]
Rüzgar 140º variable 090º to 180º 6kt
Görünürlük 9700m
Hava -
Bulutlar Broken Clouds 4200ft
Basınç 1018
Değiştir -
Ham BIRK 241500Z 14006KT 090V180 9999 BKN042 11/02 Q1018

VFR

11°C / 3°C

[Daha fazla]
Rüzgar 150º 7kt
Görünürlük 9700m. Runway 19: Visual range is 1500m.
Hava -
Bulutlar Broken Clouds 3400ft
Basınç 1018
Değiştir -
Ham BIRK 241400Z 15007KT 9999 R19/P1500N BKN034 11/03 Q1018

VFR

11°C / 2°C

[Daha fazla]
Rüzgar 140º 6kt
Görünürlük 9700m
Hava -
Bulutlar Broken Clouds 3700ft
Basınç 1019
Değiştir -
Ham BIRK 241306Z 14006KT 9999 BKN037 11/02 Q1019

VFR

10°C / 3°C

[Daha fazla]
Rüzgar 120º variable 090º to 150º 5kt
Görünürlük 9700m
Hava -
Bulutlar Overcast 3400ft
Basınç 1020
Değiştir -
Ham BIRK 241200Z 12005KT 090V150 9999 OVC034 10/03 Q1020

VFR

10°C / 3°C

[Daha fazla]
Rüzgar 90º variable 060º to 120º 4kt
Görünürlük 9700m
Hava -
Bulutlar Overcast 3300ft
Basınç 1020
Değiştir -
Ham BIRK 241100Z 09004KT 060V120 9999 OVC033 10/03 Q1020

VFR

10°C / 4°C

[Daha fazla]
Rüzgar 90º 3kt
Görünürlük 9700m
Hava -
Bulutlar Overcast 3200ft
Basınç 1021
Değiştir -
Ham BIRK 241000Z 09003KT 9999 OVC032 10/04 Q1021

VFR

9°C / 4°C

[Daha fazla]
Rüzgar 110º variable 080º to 140º 3kt
Görünürlük 9700m
Hava -
Bulutlar Overcast 3200ft
Basınç 1022
Değiştir -
Ham BIRK 240900Z 11003KT 080V140 9999 OVC032 09/04 Q1022

VFR

8°C / 4°C

[Daha fazla]
Rüzgar 110º 3kt
Görünürlük 9700m
Hava -
Bulutlar Overcast 3300ft
Basınç 1022
Değiştir -
Ham BIRK 240800Z 11003KT 9999 OVC033 08/04 Q1022

VFR

7°C / 5°C

[Daha fazla]
Rüzgar 100º 3kt
Görünürlük 9700m
Hava -
Bulutlar Broken Clouds 3400ft
Basınç 1023
Değiştir -
Ham BIRK 240700Z 10003KT 9999 BKN034 07/05 Q1023

VFR

8°C / 5°C

[Daha fazla]
Rüzgar 80º 2kt
Görünürlük 9700m
Hava -
Bulutlar Broken Clouds 3400ft
Basınç 1023
Değiştir -
Ham BIRK 240600Z 08002KT 9999 BKN034 08/05 Q1023

VFR

7°C / 6°C

[Daha fazla]
Rüzgar variable 0kt
Görünürlük 9700m
Hava -
Bulutlar Broken Clouds 3400ft
Basınç 1024
Değiştir -
Ham BIRK 240500Z 00000KT 9999 BKN034 07/06 Q1024

VFR

7°C / 6°C

[Daha fazla]
Rüzgar 210º 2kt
Görünürlük 9700m
Hava -
Bulutlar Overcast 3500ft
Basınç 1024
Değiştir -
Ham BIRK 240400Z 21002KT 9999 OVC035 07/06 Q1024

VFR

7°C / 6°C

[Daha fazla]
Rüzgar variable 0kt
Görünürlük 9700m
Hava -
Bulutlar Broken Clouds 3700ft
Basınç 1025
Değiştir -
Ham BIRK 240300Z 00000KT 9999 BKN037 07/06 Q1025

VFR

7°C / 7°C

[Daha fazla]
Rüzgar 220º 1kt
Görünürlük 9700m
Hava -
Bulutlar Broken Clouds 3900ft
Basınç 1026
Değiştir -
Ham BIRK 240200Z 22001KT 9999 BKN039 07/07 Q1026

Reykjavik (BIRK) için TAF

From till


Maximum Temperature 11ºC on . Minimum Temperature 5ºC on .
From till Wind 140º 5kt. Visibility 9700m. Broken Clouds 4000ft.
Becoming from till

Ham: TAF BIRK 242246Z 2500/2600 14005KT 9999 BKN040 TX11/2515Z TN05/2506Z BECMG 2507/2509 32010KT CAVOK

Reykjavik için Radar

Çise
Hafif
Orta
Ağır
Çok ağır
Dolu

Konum işaretleyicisi Reykjavik üzerine yerleştirilir. Turuncu çarpılar yıldırımı göstermektedir. Veriler nowcast.de tarafından sağlanmıştır (ABD, Avrupa ve Avustralya'da erişimi mevcuttur). Çiseleyen yağmur veya hafif kar yağışı radarda görünmeyebilir. Yağış yoğunluğu turkuazdan kırmızıya kadar değişen renklerle kodlanmıştır.

Reykjavik için şu anki uydu ve yağmur görüntüleri, İzlanda

Konum işaretleyici Reykjavik üzerine yerleştirilir. [Daha fazla]

Gerçek zamanlı uydu görüntüsü gündüz süresince görülür ışığı gece süresince kızılötesi ışınım ile birleştirir. Gece kızılötesi ışınım sıcaklık farklarını algılayabildiğinden dolayı görüntü karanlık değildir. Ancak düşük bulutları ve sisi yer sıcaklığından ayırmak zordur ve bu nedenle gece boyunca neredeyse görünmez olabilirler. Avrupa için Meteosat uydu görüntüleri gerçek zamanlı olarak her 5 dakikada bir güncellenir. GOES-16/GOES-17 (Kuzey ve Güney Amerika) ve Himawari (Asya) görüntüleri her 10 dakikada bir güncellenir.

Yağış radar ve uydulardan tahmin edilir. Uydulardan elde edilen yağış tahminleri geceleri gündüze göre daha az doğrudur.

© 2024 meteoblue, NOAA Satellites GOES-16 and EUMETSAT. nowcast tarafından sağlanan şimşek verileri.

En başa git
×
Merhaba,
bir reklam engelleyici kullanıyormuşsunuz gibi görünüyor.

Reklam, ücretsiz web sitemizi benzersiz ayrıntı ve doğrulukla sürdürmek için çok önemlidir.

Lütfen reklam engelleyicinizde www.meteoblue.com beyaz listesini beyaz listeye alın veya ürünlerimizden birini satın almayı düşünün:

Zaten bir aboneliğiniz var mı?
O halde lütfen giriş yapın.